createdAt,value
2017-08-10T00:00:33.395Z,6.57
2017-08-10T00:03:05.668Z,6.53
2017-08-10T00:05:34.368Z,6.13
2017-08-10T00:08:03.018Z,6.27
2017-08-10T00:10:31.730Z,7.03
2017-08-10T00:13:04.169Z,6.77
2017-08-10T00:15:32.906Z,6.23
2017-08-10T00:18:01.597Z,6.70
2017-08-10T00:20:30.290Z,6.50
2017-08-10T00:23:04.434Z,6.60
2017-08-10T00:25:33.099Z,6.30
2017-08-10T00:28:01.831Z,6.73
2017-08-10T00:30:32.235Z,6.87
2017-08-10T00:33:04.280Z,6.80
2017-08-10T00:35:33.039Z,6.47
2017-08-10T00:38:01.739Z,6.43
2017-08-10T00:40:30.428Z,6.50
2017-08-10T00:43:02.531Z,7.17
2017-08-10T00:45:31.221Z,5.83
2017-08-10T00:47:59.955Z,6.30
2017-08-10T00:50:28.648Z,6.63
2017-08-10T00:52:57.313Z,5.70
2017-08-10T00:55:26.046Z,5.90
2017-08-10T00:57:57.527Z,6.67
2017-08-10T01:00:26.409Z,5.70
2017-08-10T01:02:55.166Z,6.50
2017-08-10T01:05:23.907Z,5.67
2017-08-10T01:07:52.560Z,5.80
2017-08-10T01:10:21.241Z,6.37
2017-08-10T01:12:49.884Z,6.90
2017-08-10T01:15:18.620Z,6.30
2017-08-10T01:17:47.369Z,5.70
2017-08-10T01:20:16.086Z,6.40
2017-08-10T01:22:44.778Z,6.43
2017-08-10T01:25:13.506Z,6.37
2017-08-10T01:27:42.204Z,6.97
2017-08-10T01:30:10.850Z,7.00
2017-08-10T01:32:39.595Z,7.20
2017-08-10T01:35:08.301Z,6.30
2017-08-10T01:37:37.022Z,6.40
2017-08-10T01:40:05.765Z,5.60
2017-08-10T01:42:34.494Z,6.47
2017-08-10T01:45:03.261Z,6.80
2017-08-10T01:47:31.962Z,6.23
2017-08-10T01:50:00.712Z,6.00
2017-08-10T01:52:29.492Z,6.17
2017-08-10T01:54:58.218Z,6.07
2017-08-10T01:57:26.951Z,7.10
2017-08-10T01:59:55.610Z,5.70
2017-08-10T02:02:24.275Z,6.17
2017-08-10T02:04:53.021Z,6.10
2017-08-10T02:07:21.706Z,6.03
2017-08-10T02:09:50.417Z,6.97
2017-08-10T02:12:19.136Z,5.93
2017-08-10T02:14:47.886Z,6.10
2017-08-10T02:17:16.547Z,5.83
2017-08-10T02:19:45.279Z,6.33
2017-08-10T02:22:14.026Z,5.70
2017-08-10T02:24:42.702Z,5.20
2017-08-10T02:27:11.455Z,5.63
2017-08-10T02:29:40.141Z,5.60
2017-08-10T02:32:08.870Z,6.17
2017-08-10T02:34:37.624Z,5.33
2017-08-10T02:37:06.314Z,6.33
2017-08-10T02:39:35.041Z,6.57
2017-08-10T02:42:03.721Z,7.37
2017-08-10T02:44:32.463Z,5.57
2017-08-10T02:47:01.148Z,6.03
2017-08-10T02:49:29.944Z,5.70
2017-08-10T02:51:58.608Z,5.70
2017-08-10T02:54:27.329Z,6.70
2017-08-10T02:56:56.058Z,6.07
2017-08-10T02:59:24.729Z,7.10
2017-08-10T03:01:53.433Z,5.47
2017-08-10T03:04:22.168Z,5.47
2017-08-10T03:06:50.835Z,5.77
2017-08-10T03:09:19.580Z,6.20
2017-08-10T03:11:48.267Z,5.10
2017-08-10T03:14:16.956Z,6.20
2017-08-10T03:16:45.695Z,5.47
2017-08-10T03:19:14.438Z,5.40
2017-08-10T03:21:43.255Z,6.00
2017-08-10T03:24:11.923Z,5.67
2017-08-10T03:26:40.700Z,5.67
2017-08-10T03:29:09.353Z,5.77
2017-08-10T03:31:38.052Z,5.30
2017-08-10T03:34:06.797Z,5.20
2017-08-10T03:36:35.474Z,5.80
2017-08-10T03:39:03.987Z,5.00
2017-08-10T03:41:32.721Z,5.50
2017-08-10T03:44:01.417Z,5.20
2017-08-10T03:46:30.104Z,4.20
2017-08-10T03:48:58.791Z,5.67
2017-08-10T03:51:27.500Z,5.20
2017-08-10T03:53:56.135Z,5.57
2017-08-10T03:56:24.844Z,4.60
2017-08-10T03:58:53.522Z,4.40
2017-08-10T04:01:22.243Z,5.03
2017-08-10T04:03:50.957Z,4.60
2017-08-10T04:06:19.608Z,4.73
2017-08-10T04:08:48.313Z,5.20
2017-08-10T04:11:18.366Z,4.90
2017-08-10T04:13:47.284Z,4.50
2017-08-10T04:16:17.259Z,4.47
2017-08-10T04:18:50.868Z,4.83
2017-08-10T04:21:19.554Z,4.80
2017-08-10T04:23:48.282Z,4.43
2017-08-10T04:26:17.539Z,4.10
2017-08-10T04:28:46.377Z,4.30
2017-08-10T04:31:15.047Z,4.30
2017-08-10T04:33:44.013Z,3.80
2017-08-10T04:36:12.718Z,4.33
2017-08-10T04:38:41.372Z,3.90
2017-08-10T04:41:10.102Z,4.17
2017-08-10T04:43:38.777Z,4.70
2017-08-10T04:46:07.499Z,3.70
2017-08-10T04:48:36.224Z,3.90
2017-08-10T04:51:04.879Z,4.53
2017-08-10T04:53:33.607Z,3.40
2017-08-10T04:56:02.356Z,4.00
2017-08-10T04:58:31.028Z,4.30
2017-08-10T05:00:59.738Z,3.70
2017-08-10T05:03:28.438Z,4.30
2017-08-10T05:05:57.208Z,4.70
2017-08-10T05:08:25.921Z,4.40
2017-08-10T05:10:54.610Z,3.93
2017-08-10T05:13:23.335Z,4.90
2017-08-10T05:15:52.065Z,4.63
2017-08-10T05:18:20.754Z,4.90
2017-08-10T05:20:49.447Z,4.37
2017-08-10T05:23:18.162Z,3.93
2017-08-10T05:25:46.880Z,4.30
2017-08-10T05:28:15.610Z,4.13
2017-08-10T05:30:44.335Z,3.90
2017-08-10T05:33:13.070Z,4.23
2017-08-10T05:35:41.753Z,3.90
2017-08-10T05:38:10.424Z,4.43
2017-08-10T05:40:39.184Z,4.50
2017-08-10T05:43:08.154Z,5.03
2017-08-10T05:45:36.894Z,5.40
2017-08-10T05:48:05.616Z,5.60
2017-08-10T05:50:34.677Z,6.53
2017-08-10T05:53:05.455Z,6.40
2017-08-10T05:55:34.144Z,8.03
2017-08-10T05:58:02.802Z,8.90
2017-08-10T06:00:31.546Z,9.17
2017-08-10T06:03:04.468Z,8.80
2017-08-10T06:05:33.148Z,10.07
2017-08-10T06:08:01.838Z,10.13
2017-08-10T06:10:30.583Z,10.60
2017-08-10T06:13:03.776Z,10.53
2017-08-10T06:15:32.480Z,10.53
2017-08-10T06:18:01.183Z,10.53
2017-08-10T06:20:29.882Z,10.63
2017-08-10T06:23:02.170Z,9.97
2017-08-10T06:25:30.863Z,9.10
2017-08-10T06:27:59.553Z,9.80
2017-08-10T06:30:28.281Z,8.40
2017-08-10T06:33:00.629Z,8.43
2017-08-10T06:35:29.379Z,8.30
2017-08-10T06:37:58.047Z,7.50
2017-08-10T06:40:26.742Z,7.00
2017-08-10T06:42:55.476Z,7.40
2017-08-10T06:45:24.127Z,6.30
2017-08-10T06:47:52.900Z,5.90
2017-08-10T06:50:21.536Z,5.40
2017-08-10T06:52:50.178Z,4.97
2017-08-10T06:55:18.955Z,5.77
2017-08-10T06:57:47.635Z,5.03
2017-08-10T07:00:16.347Z,4.83
2017-08-10T07:02:45.002Z,4.50
2017-08-10T07:05:13.686Z,4.30
2017-08-10T07:07:42.387Z,4.53
2017-08-10T07:10:11.059Z,3.63
2017-08-10T07:12:39.788Z,4.80
2017-08-10T07:15:08.689Z,4.97
2017-08-10T07:17:37.360Z,4.13
2017-08-10T07:20:06.054Z,4.20
2017-08-10T07:22:34.693Z,4.57
2017-08-10T07:25:03.401Z,4.23
2017-08-10T07:27:32.067Z,4.20
2017-08-10T07:30:01.625Z,4.30
2017-08-10T07:32:30.288Z,6.20
2017-08-10T07:34:58.978Z,5.20
2017-08-10T07:37:27.672Z,5.40
2017-08-10T07:39:56.400Z,5.10
2017-08-10T07:42:25.109Z,6.10
2017-08-10T07:44:53.800Z,5.50
2017-08-10T07:47:22.473Z,6.33
2017-08-10T07:49:51.177Z,5.30
2017-08-10T07:52:19.906Z,5.00
2017-08-10T07:54:48.560Z,5.93
2017-08-10T07:57:17.322Z,4.30
2017-08-10T07:59:46.012Z,5.07
2017-08-10T08:02:14.667Z,3.63
2017-08-10T08:04:43.382Z,3.87
2017-08-10T08:07:12.050Z,3.63
2017-08-10T08:09:40.774Z,3.83
2017-08-10T08:12:09.599Z,3.43
2017-08-10T08:14:38.364Z,3.10
2017-08-10T08:17:07.030Z,2.90
2017-08-10T08:19:35.781Z,2.60
2017-08-10T08:22:04.460Z,2.87
2017-08-10T08:24:33.178Z,2.50
2017-08-10T08:27:01.951Z,2.40
2017-08-10T08:29:30.713Z,2.57
2017-08-10T08:31:59.372Z,2.20
2017-08-10T08:34:28.080Z,2.60
2017-08-10T08:36:56.747Z,1.97
2017-08-10T08:39:25.458Z,2.20
2017-08-10T08:41:54.184Z,1.97
2017-08-10T08:44:23.169Z,2.30
2017-08-10T08:46:51.870Z,2.60
2017-08-10T08:49:20.636Z,3.27
2017-08-10T08:51:49.317Z,2.70
2017-08-10T08:54:18.009Z,3.00
2017-08-10T08:56:46.749Z,3.27
2017-08-10T08:59:15.512Z,3.40
2017-08-10T09:01:44.250Z,2.50
2017-08-10T09:04:12.995Z,2.80
2017-08-10T09:06:41.788Z,2.53
2017-08-10T09:09:10.497Z,2.60
2017-08-10T09:11:39.242Z,2.90
2017-08-10T09:14:08.005Z,3.03
2017-08-10T09:16:36.753Z,2.40
2017-08-10T09:19:05.443Z,3.97
2017-08-10T09:21:34.165Z,3.47
2017-08-10T09:24:02.912Z,2.90
2017-08-10T09:26:31.653Z,3.50
2017-08-10T09:29:00.367Z,2.90
2017-08-10T09:31:29.056Z,3.30
2017-08-10T09:33:57.783Z,2.90
2017-08-10T09:36:26.438Z,3.93
2017-08-10T09:38:55.180Z,3.50
2017-08-10T09:41:23.917Z,2.40
2017-08-10T09:43:52.606Z,3.20
2017-08-10T09:46:21.369Z,3.60
2017-08-10T09:48:50.094Z,3.07
2017-08-10T09:51:18.854Z,3.00
2017-08-10T09:53:47.582Z,2.90
2017-08-10T09:56:16.317Z,3.00
2017-08-10T09:58:45.027Z,2.97
2017-08-10T10:01:13.816Z,3.10
2017-08-10T10:03:42.568Z,3.17
2017-08-10T10:06:11.290Z,3.07
2017-08-10T10:08:40.002Z,4.00
2017-08-10T10:11:08.687Z,3.40
2017-08-10T10:13:37.180Z,3.83
2017-08-10T10:16:05.908Z,3.60
2017-08-10T10:18:34.610Z,3.03
2017-08-10T10:21:03.292Z,3.27
2017-08-10T10:23:32.040Z,2.90
2017-08-10T10:26:00.742Z,3.60
2017-08-10T10:28:29.390Z,3.47
2017-08-10T10:30:58.124Z,4.17
2017-08-10T10:33:26.938Z,3.63
2017-08-10T10:35:55.676Z,3.37
2017-08-10T10:38:24.381Z,3.40
2017-08-10T10:40:53.045Z,3.27
2017-08-10T10:43:21.754Z,3.60
2017-08-10T10:45:50.438Z,3.10
2017-08-10T10:48:19.174Z,2.90
2017-08-10T10:50:47.869Z,3.03
2017-08-10T10:53:16.609Z,2.70
2017-08-10T10:55:45.326Z,2.87
2017-08-10T10:58:13.772Z,3.00
2017-08-10T11:00:42.492Z,2.50
2017-08-10T11:03:10.913Z,2.70
2017-08-10T11:05:39.657Z,2.70
2017-08-10T11:08:08.452Z,2.57
2017-08-10T11:10:36.837Z,2.50
2017-08-10T11:13:05.656Z,2.73
2017-08-10T11:15:34.404Z,3.13
2017-08-10T11:18:03.119Z,2.40
2017-08-10T11:20:31.815Z,2.17
2017-08-10T11:23:03.629Z,1.87
2017-08-10T11:25:32.294Z,1.87
2017-08-10T11:28:01.102Z,1.97
2017-08-10T11:30:29.780Z,2.10
2017-08-10T11:33:05.371Z,2.70
2017-08-10T11:35:34.093Z,1.90
2017-08-10T11:38:02.748Z,2.23
2017-08-10T11:40:31.478Z,2.50
2017-08-10T11:43:03.308Z,1.63
2017-08-10T11:45:32.038Z,2.23
2017-08-10T11:48:00.782Z,2.00
2017-08-10T11:50:29.445Z,2.10
2017-08-10T11:53:02.124Z,2.50
2017-08-10T11:55:30.774Z,2.13
2017-08-10T11:57:59.443Z,1.57
2017-08-10T12:00:28.292Z,2.00
2017-08-10T12:03:01.325Z,1.63
2017-08-10T12:05:30.044Z,2.23
2017-08-10T12:07:59.761Z,1.90
2017-08-10T12:10:28.407Z,2.23
2017-08-10T12:12:57.119Z,2.33
2017-08-10T12:15:25.851Z,1.53
2017-08-10T12:17:54.589Z,1.70
2017-08-10T12:20:23.531Z,1.63
2017-08-10T12:22:52.197Z,1.60
2017-08-10T12:25:20.928Z,1.70
2017-08-10T12:27:49.588Z,1.50
2017-08-10T12:30:18.329Z,1.53
2017-08-10T12:32:47.012Z,1.57
2017-08-10T12:35:15.684Z,1.83
2017-08-10T12:37:44.394Z,1.73
2017-08-10T12:40:13.067Z,1.83
2017-08-10T12:42:41.832Z,1.50
2017-08-10T12:45:10.535Z,1.50
2017-08-10T12:47:39.226Z,1.30
2017-08-10T12:50:07.959Z,1.93
2017-08-10T12:52:36.713Z,1.93
2017-08-10T12:55:05.408Z,1.87
2017-08-10T12:57:34.136Z,1.40
2017-08-10T13:00:02.769Z,1.73
2017-08-10T13:02:31.472Z,1.90
2017-08-10T13:05:00.172Z,2.13
2017-08-10T13:07:28.817Z,2.00
2017-08-10T13:09:57.635Z,1.43
2017-08-10T13:12:26.382Z,1.70
2017-08-10T13:14:55.096Z,1.80
2017-08-10T13:17:23.809Z,1.93
2017-08-10T13:19:52.476Z,2.20
2017-08-10T13:22:21.263Z,1.90
2017-08-10T13:24:49.992Z,2.10
2017-08-10T13:27:18.711Z,2.33
2017-08-10T13:29:47.410Z,2.67
2017-08-10T13:32:16.152Z,2.37
2017-08-10T13:34:44.892Z,2.03
2017-08-10T13:37:13.580Z,2.23
2017-08-10T13:39:42.300Z,2.03
2017-08-10T13:42:10.978Z,2.23
2017-08-10T13:44:39.704Z,2.00
2017-08-10T13:47:08.365Z,2.13
2017-08-10T13:49:37.101Z,2.23
2017-08-10T13:52:05.812Z,2.40
2017-08-10T13:54:34.490Z,2.53
2017-08-10T13:57:03.261Z,2.57
2017-08-10T13:59:31.995Z,2.50
2017-08-10T14:02:00.727Z,2.47
2017-08-10T14:04:29.393Z,2.67
2017-08-10T14:06:57.976Z,2.03
2017-08-10T14:09:26.684Z,1.83
2017-08-10T14:11:55.331Z,1.50
2017-08-10T14:14:24.045Z,2.43
2017-08-10T14:16:52.738Z,3.00
2017-08-10T14:19:21.484Z,2.90
2017-08-10T14:21:50.269Z,2.30
2017-08-10T14:24:18.969Z,2.50
2017-08-10T14:26:47.840Z,2.43
2017-08-10T14:29:16.514Z,1.63
2017-08-10T14:31:45.204Z,2.60
2017-08-10T14:34:13.953Z,2.33
2017-08-10T14:36:42.721Z,2.13
2017-08-10T14:39:12.382Z,2.63
2017-08-10T14:41:41.110Z,1.97
2017-08-10T14:44:09.847Z,2.13
2017-08-10T14:46:38.629Z,2.67
2017-08-10T14:49:07.432Z,2.03
2017-08-10T14:51:36.630Z,2.80
2017-08-10T14:54:05.341Z,2.03
2017-08-10T14:56:34.030Z,2.50
2017-08-10T14:59:02.696Z,2.30
2017-08-10T15:01:31.451Z,2.10
2017-08-10T15:04:00.103Z,2.07
2017-08-10T15:06:28.817Z,2.30
2017-08-10T15:08:57.512Z,1.70
2017-08-10T15:11:26.170Z,2.83
2017-08-10T15:13:54.906Z,2.47
2017-08-10T15:16:23.593Z,2.10
2017-08-10T15:18:52.902Z,2.20
2017-08-10T15:21:21.574Z,2.00
2017-08-10T15:23:50.619Z,2.13
2017-08-10T15:26:19.399Z,2.30
2017-08-10T15:28:51.048Z,3.00
2017-08-10T15:31:19.787Z,2.10
2017-08-10T15:33:59.592Z,3.10
2017-08-10T15:36:40.624Z,2.60
2017-08-10T15:39:18.342Z,2.67
2017-08-10T15:44:43.213Z,2.30
2017-08-10T15:47:28.644Z,2.90
2017-08-10T15:50:10.424Z,2.40
2017-08-10T15:52:49.324Z,2.30
2017-08-10T15:55:35.521Z,1.93
2017-08-10T15:58:16.441Z,2.20
2017-08-10T16:00:58.511Z,2.30
2017-08-10T16:03:36.698Z,2.87
2017-08-10T16:06:19.149Z,2.47
2017-08-10T16:08:58.964Z,2.03
2017-08-10T16:11:37.822Z,2.47
2017-08-10T16:17:05.620Z,2.40
2017-08-10T16:19:38.091Z,3.13
2017-08-10T16:22:14.969Z,2.50
2017-08-10T16:24:44.721Z,2.67
2017-08-10T16:27:14.783Z,2.27
2017-08-10T16:32:22.127Z,2.33
2017-08-10T16:34:51.325Z,1.80
2017-08-10T16:37:20.742Z,2.90
2017-08-10T16:39:49.815Z,2.40
2017-08-10T16:42:19.295Z,1.50
2017-08-10T16:44:52.462Z,2.17
2017-08-10T16:47:21.664Z,2.17
2017-08-10T16:49:59.918Z,2.43
2017-08-10T16:52:41.257Z,1.90
2017-08-10T16:55:18.116Z,2.00
2017-08-10T16:57:58.160Z,2.67
2017-08-10T17:00:39.547Z,3.43
2017-08-10T17:03:22.185Z,2.33
2017-08-10T17:06:01.331Z,2.87
2017-08-10T17:08:40.817Z,3.43
2017-08-10T17:11:22.895Z,2.70
2017-08-10T17:14:07.713Z,1.97
2017-08-10T17:16:37.268Z,1.90
2017-08-10T17:19:05.975Z,3.10
2017-08-10T17:21:34.677Z,1.87
2017-08-10T17:24:03.391Z,2.33
2017-08-10T17:26:32.116Z,2.20
2017-08-10T17:29:00.788Z,2.17
2017-08-10T17:31:29.488Z,2.30
2017-08-10T17:34:06.529Z,1.60
2017-08-10T17:36:35.311Z,2.40
2017-08-10T17:39:14.453Z,1.80
2017-08-10T17:41:56.619Z,2.37
2017-08-10T17:44:37.758Z,2.17
2017-08-10T17:47:10.313Z,2.73
2017-08-10T17:49:39.078Z,1.90
2017-08-10T17:52:20.916Z,2.57
2017-08-10T17:54:59.876Z,2.30
2017-08-10T17:57:42.063Z,2.20
2017-08-10T18:00:24.015Z,2.13
2017-08-10T18:05:54.906Z,2.03
2017-08-10T18:08:40.492Z,2.43
2017-08-10T18:11:09.494Z,2.70
2017-08-10T18:13:46.163Z,2.53
2017-08-10T18:16:25.975Z,2.70
2017-08-10T18:18:55.270Z,2.37
2017-08-10T18:21:30.036Z,2.07
2017-08-10T18:24:07.604Z,2.10
2017-08-10T18:26:47.086Z,2.57
2017-08-10T18:29:28.668Z,2.00
2017-08-10T18:32:01.252Z,2.30
2017-08-10T18:34:33.296Z,2.10
2017-08-10T18:37:07.460Z,2.50
2017-08-10T18:39:39.120Z,2.40
2017-08-10T18:42:10.727Z,2.03
2017-08-10T18:44:41.090Z,1.77
2017-08-10T18:47:11.340Z,2.30
2017-08-10T18:49:41.576Z,2.27
2017-08-10T18:52:14.064Z,2.03
2017-08-10T18:54:47.070Z,2.43
2017-08-10T18:57:19.431Z,2.10
2017-08-10T18:59:51.310Z,2.40
2017-08-10T19:02:20.916Z,2.10
2017-08-10T19:04:52.165Z,1.83
2017-08-10T19:07:24.846Z,2.77
2017-08-10T19:09:56.576Z,2.17
2017-08-10T19:12:28.367Z,2.40
2017-08-10T19:14:59.056Z,2.70
2017-08-10T19:17:31.266Z,1.93
2017-08-10T19:20:02.408Z,1.97
2017-08-10T19:22:34.949Z,2.43
2017-08-10T19:25:04.183Z,2.43
2017-08-10T19:27:32.893Z,2.50
2017-08-10T19:30:16.787Z,1.73
2017-08-10T19:33:01.149Z,1.97
2017-08-10T19:41:20.900Z,1.90
2017-08-10T19:44:04.771Z,2.07
2017-08-10T19:46:50.557Z,2.20
2017-08-10T19:49:34.633Z,2.23
2017-08-10T19:55:06.376Z,2.50
2017-08-10T19:57:49.563Z,2.70
2017-08-10T20:03:27.342Z,2.60
2017-08-10T20:09:01.515Z,2.10
2017-08-10T20:11:50.010Z,2.70
2017-08-10T20:17:24.585Z,2.53
2017-08-10T20:20:09.290Z,2.23
2017-08-10T20:22:55.425Z,2.30
2017-08-10T20:25:39.864Z,2.50
2017-08-10T20:28:24.034Z,2.40
2017-08-10T20:31:09.977Z,2.40
2017-08-10T20:33:57.657Z,2.47
2017-08-10T20:36:42.125Z,2.57
2017-08-10T20:39:25.615Z,3.27
2017-08-10T20:42:08.560Z,2.90
2017-08-10T20:44:50.736Z,2.70
2017-08-10T20:47:33.463Z,2.70
2017-08-10T20:50:15.723Z,2.70
2017-08-10T20:52:57.307Z,2.73
2017-08-10T20:55:39.901Z,2.57
2017-08-10T20:58:21.159Z,3.23
2017-08-10T21:01:03.677Z,3.30
2017-08-10T21:03:45.178Z,2.77
2017-08-10T21:06:27.491Z,2.20
2017-08-10T21:09:09.196Z,2.30
2017-08-10T21:11:38.732Z,2.30
2017-08-10T21:14:07.496Z,2.97
2017-08-10T21:16:36.182Z,3.00
2017-08-10T21:19:04.858Z,2.50
2017-08-10T21:21:33.656Z,2.67
2017-08-10T21:24:02.443Z,3.00
2017-08-10T21:26:31.148Z,2.33
2017-08-10T21:28:59.820Z,3.03
2017-08-10T21:31:28.531Z,2.27
2017-08-10T21:33:57.280Z,2.73
2017-08-10T21:36:25.976Z,2.77
2017-08-10T21:38:54.711Z,3.03
2017-08-10T21:41:23.648Z,2.10
2017-08-10T21:43:52.459Z,2.30
2017-08-10T21:46:21.163Z,2.30
2017-08-10T21:48:49.845Z,2.60
2017-08-10T21:51:18.382Z,3.23
2017-08-10T21:53:47.096Z,2.43
2017-08-10T21:56:15.798Z,3.50
2017-08-10T21:58:45.423Z,2.07
2017-08-10T22:01:14.171Z,2.37
2017-08-10T22:03:42.874Z,2.73
2017-08-10T22:06:11.785Z,2.40
2017-08-10T22:08:40.533Z,2.67
2017-08-10T22:11:09.233Z,2.60
2017-08-10T22:13:37.949Z,2.73
2017-08-10T22:16:06.883Z,2.90
2017-08-10T22:18:35.621Z,2.70
2017-08-10T22:21:07.096Z,2.77
2017-08-10T22:23:38.347Z,2.80
2017-08-10T22:26:07.457Z,2.77
2017-08-10T22:28:36.344Z,2.27
2017-08-10T22:31:05.076Z,2.43
2017-08-10T22:33:37.920Z,3.27
2017-08-10T22:36:07.955Z,2.57
2017-08-10T22:38:37.851Z,2.30
2017-08-10T22:41:09.876Z,2.87
2017-08-10T22:43:42.132Z,2.77
2017-08-10T22:46:18.298Z,3.00
2017-08-10T22:48:47.872Z,2.90
2017-08-10T22:51:18.998Z,3.00
2017-08-10T22:53:49.052Z,2.73
2017-08-10T22:56:18.501Z,2.50
2017-08-10T22:58:48.331Z,2.73
2017-08-10T23:01:18.035Z,3.13
2017-08-10T23:03:47.416Z,3.10
2017-08-10T23:06:17.611Z,2.90
2017-08-10T23:08:50.167Z,2.70
2017-08-10T23:11:19.803Z,2.73
2017-08-10T23:13:49.552Z,2.90
2017-08-10T23:16:18.817Z,2.73
2017-08-10T23:18:48.739Z,3.10
2017-08-10T23:21:21.343Z,2.70
2017-08-10T23:23:53.264Z,2.57
2017-08-10T23:26:26.266Z,2.70
2017-08-10T23:28:57.387Z,2.63
2017-08-10T23:31:28.304Z,2.33
2017-08-10T23:33:59.759Z,3.00
2017-08-10T23:36:31.132Z,2.97
2017-08-10T23:39:03.691Z,2.90
2017-08-10T23:41:34.303Z,2.87
2017-08-10T23:44:05.310Z,2.50
2017-08-10T23:46:36.487Z,3.03
2017-08-10T23:49:05.213Z,2.47
2017-08-10T23:51:33.854Z,2.73
2017-08-10T23:54:02.578Z,2.63
2017-08-10T23:56:31.247Z,2.73
2017-08-10T23:58:59.979Z,2.90
